Time;durP1;ratioP1;P1;durP2;ratioP2;P2;SDS_P1;SDS_P2;PMS_P1;PMS_P2;Temp;Humidity;BMP_temperature;BMP_pressure;BME280_temperature;BME280_humidity;BME280_pressure;Samples;Min_cycle;Max_cycle;Signal;HPM_P1;HPM_P2
2023/08/01 00:11:42;;;;;;;3.47;1.67;;;;;;;18.72;61.86;99173.47;31085753;28;97280;-64
2023/08/01 00:26:42;;;;;;;3.53;1.90;;;;;;;18.57;62.16;99155.19;31084666;28;96825;-64
2023/08/01 00:41:42;;;;;;;3.78;2.10;;;;;;;18.44;62.54;99127.50;31082890;28;96861;-65
2023/08/01 00:56:44;;;;;;;3.58;1.77;;;;;;;18.31;62.82;99108.16;31082493;28;97408;-66
2023/08/01 01:11:45;;;;;;;3.17;1.80;;;;;;;18.10;63.25;99075.53;31081286;28;96717;-66
2023/08/01 01:26:47;;;;;;;7.83;2.20;;;;;;;17.76;64.03;99053.97;31085609;28;97301;-65
2023/08/01 01:41:47;;;;;;;3.73;2.10;;;;;;;17.56;64.86;99031.03;31100840;28;97158;-64
2023/08/01 01:56:47;;;;;;;4.03;1.90;;;;;;;17.49;65.24;99014.22;31099355;28;111361;-66
2023/08/01 02:11:48;;;;;;;5.82;1.90;;;;;;;17.40;65.84;99000.34;31095975;28;110654;-65
2023/08/01 02:26:49;;;;;;;5.38;2.15;;;;;;;17.38;66.03;98985.50;31096639;28;96759;-65
2023/08/01 02:41:50;;;;;;;3.37;1.77;;;;;;;17.46;66.05;98973.53;31093579;28;96711;-65
2023/08/01 02:56:51;;;;;;;3.90;2.03;;;;;;;17.57;66.23;98951.06;31092380;28;111224;-65
2023/08/01 03:11:51;;;;;;;4.13;1.90;;;;;;;17.58;66.04;98948.13;31091773;28;97456;-64
2023/08/01 03:26:51;;;;;;;5.95;2.10;;;;;;;17.54;66.20;98938.91;31089470;28;106260;-65
2023/08/01 03:41:51;;;;;;;4.43;1.70;;;;;;;17.48;66.76;98915.69;31087182;28;105390;-64
2023/08/01 03:56:52;;;;;;;5.18;2.20;;;;;;;17.63;66.56;98909.69;31085042;28;96751;-64
2023/08/01 04:11:52;;;;;;;4.22;1.85;;;;;;;17.70;66.60;98910.34;31084755;28;97069;-64
2023/08/01 04:26:53;;;;;;;3.67;2.08;;;;;;;17.63;67.25;98920.44;31082231;28;96836;-65
2023/08/01 04:41:54;;;;;;;8.10;2.90;;;;;;;17.46;67.95;98907.03;31081235;28;97108;-65
2023/08/01 04:56:54;;;;;;;4.72;2.55;;;;;;;17.28;69.43;98894.66;31082748;28;97501;-65
2023/08/01 05:11:54;;;;;;;9.52;3.20;;;;;;;17.20;70.35;98893.19;31102377;28;96822;-65
2023/08/01 05:26:55;;;;;;;4.95;2.50;;;;;;;17.13;71.64;98871.00;31101593;28;109686;-65
2023/08/01 05:41:55;;;;;;;5.85;3.28;;;;;;;17.00;72.96;98871.34;31096134;28;110976;-66
2023/08/01 05:56:55;;;;;;;5.22;2.53;;;;;;;17.08;73.86;98862.84;31097662;28;97179;-65
2023/08/01 06:11:56;;;;;;;5.95;2.50;;;;;;;17.30;74.20;98856.72;31093484;28;98600;-65
2023/08/01 06:26:56;;;;;;;5.55;2.75;;;;;;;17.30;74.78;98854.03;31093521;28;97858;-65
2023/08/01 06:41:57;;;;;;;5.85;3.58;;;;;;;17.36;75.27;98821.56;31092338;28;116159;-65
2023/08/01 06:56:58;;;;;;;5.80;2.97;;;;;;;17.44;75.49;98801.47;31087763;28;96743;-66
2023/08/01 07:11:58;;;;;;;8.93;2.90;;;;;;;17.49;75.82;98793.44;31082515;28;97470;-67
2023/08/01 07:26:59;;;;;;;7.47;3.47;;;;;;;17.81;76.00;98790.09;31086215;28;99929;-71
2023/08/01 07:41:59;;;;;;;5.20;2.80;;;;;;;18.18;75.94;98784.03;31086472;28;97483;-64
2023/08/01 07:56:59;;;;;;;7.85;3.00;;;;;;;18.58;74.86;98780.06;31085868;28;105580;-65
2023/08/01 08:12:00;;;;;;;6.47;2.95;;;;;;;18.56;74.46;98749.84;31076173;28;107664;-66
2023/08/01 08:27:00;;;;;;;5.35;2.72;;;;;;;18.68;74.34;98721.88;31077756;28;97558;-67
2023/08/01 08:42:01;;;;;;;4.30;2.22;;;;;;;18.61;74.16;98706.72;31075631;28;97280;-66
2023/08/01 08:57:01;;;;;;;9.50;4.20;;;;;;;18.53;74.10;98715.28;31073803;28;96963;-66
2023/08/01 09:12:02;;;;;;;7.13;2.80;;;;;;;18.83;73.84;98703.09;31075414;28;98016;-66
2023/08/01 09:27:08;;;;;;;4.07;2.35;;;;;;;18.91;73.12;98691.84;31070802;28;97387;-71
2023/08/01 09:42:08;;;;;;;4.63;2.27;;;;;;;19.03;73.25;98686.22;31070174;28;96807;-69
2023/08/01 09:57:11;;;;;;;3.63;2.20;;;;;;;19.28;73.03;98666.63;30983191;28;97715;-66
2023/08/01 10:12:12;;;;;;;6.97;2.40;;;;;;;19.65;72.26;98648.63;31076853;28;97494;-67
2023/08/01 10:27:20;;;;;;;4.13;2.07;;;;;;;20.39;70.75;98641.09;31088111;28;96829;-68
2023/08/01 10:42:20;;;;;;;5.20;2.43;;;;;;;20.26;68.90;98634.34;31085463;28;97071;-67
2023/08/01 10:57:21;;;;;;;4.70;2.10;;;;;;;20.09;68.74;98625.72;31085497;28;99652;-68
2023/08/01 11:12:21;;;;;;;7.93;2.67;;;;;;;19.78;68.56;98631.91;31081211;28;111995;-66
2023/08/01 11:27:21;;;;;;;3.57;1.90;;;;;;;19.36;69.51;98605.09;30961769;28;97106;-69
2023/08/01 11:42:22;;;;;;;4.57;1.80;;;;;;;19.84;68.56;98586.81;30958973;28;98053;-66
2023/08/01 11:57:22;;;;;;;2.33;1.60;;;;;;;20.25;67.63;98540.00;31014960;28;106517;-66
2023/08/01 12:12:23;;;;;;;2.70;1.70;;;;;;;21.21;65.42;98536.34;31067796;28;97883;-71
2023/08/01 12:27:23;;;;;;;2.70;1.57;;;;;;;22.51;61.41;98529.50;31066297;28;97468;-71
2023/08/01 12:42:24;;;;;;;2.75;1.30;;;;;;;22.76;58.58;98547.41;31037715;28;98007;-67
2023/08/01 12:57:25;;;;;;;;;;;;;;;22.81;56.87;98530.22;31044275;28;112629;-66
2023/08/01 13:12:25;;;;;;;3.50;1.20;;;;;;;23.12;55.16;98519.78;31037959;28;98602;-71
2023/08/01 13:27:25;;;;;;;3.80;1.30;;;;;;;23.76;52.31;98510.38;31064597;28;98192;-66
2023/08/01 13:42:26;;;;;;;4.22;1.73;;;;;;;24.08;50.98;98516.88;31072878;28;115173;-71
2023/08/01 13:57:26;;;;;;;2.53;1.50;;;;;;;24.72;50.23;98525.16;31067863;28;97315;-68
2023/08/01 14:12:26;;;;;;;3.35;1.20;;;;;;;23.53;50.03;98531.94;31065025;28;97954;-69
2023/08/01 14:27:27;;;;;;;2.95;1.48;;;;;;;22.76;51.31;98535.75;31073385;28;109831;-67
2023/08/01 14:42:27;;;;;;;1.67;1.10;;;;;;;22.57;52.13;98543.84;31064693;28;97136;-67
2023/08/01 14:57:27;;;;;;;;;;;;;;;22.73;51.94;98564.28;31073928;28;114724;-69
2023/08/01 15:12:28;;;;;;;2.90;1.50;;;;;;;22.43;52.50;98592.53;31073694;28;97115;-67
2023/08/01 15:27:28;;;;;;;2.05;1.20;;;;;;;22.14;53.27;98596.88;31068225;28;112082;-68
2023/08/01 15:42:28;;;;;;;4.03;0.93;;;;;;;21.97;53.28;98619.00;31068822;28;115172;-71
2023/08/01 15:57:30;;;;;;;2.77;1.40;;;;;;;21.84;54.20;98614.22;31056332;28;97450;-66
2023/08/01 16:12:30;;;;;;;2.33;1.60;;;;;;;21.68;55.02;98600.00;31057288;28;108118;-70
2023/08/01 16:27:30;;;;;;;3.57;1.83;;;;;;;21.54;56.01;98588.97;31057113;28;98529;-66
2023/08/01 16:42:31;;;;;;;10.23;0.93;;;;;;;21.33;56.91;98623.47;31038900;28;110685;-64
2023/08/01 16:57:31;;;;;;;4.50;0.60;;;;;;;20.65;56.12;98697.03;31044839;28;97860;-66
2023/08/01 17:12:32;;;;;;;1.00;0.53;;;;;;;19.36;58.49;98702.31;31074999;28;98445;-66
2023/08/01 17:27:33;;;;;;;2.22;0.50;;;;;;;18.22;62.12;98717.78;31069663;28;97856;-64
2023/08/01 17:42:33;;;;;;;3.40;0.60;;;;;;;17.57;65.66;98712.25;31070417;28;98021;-66
2023/08/01 17:57:34;;;;;;;1.83;0.93;;;;;;;17.20;68.23;98704.81;31062356;28;97729;-65
2023/08/01 18:12:34;;;;;;;2.47;0.73;;;;;;;17.01;69.99;98725.81;31067440;28;98450;-63
2023/08/01 18:27:34;;;;;;;3.75;1.15;;;;;;;16.79;71.35;98766.09;31062131;28;97627;-61
2023/08/01 18:42:35;;;;;;;2.03;1.10;;;;;;;16.58;72.48;98783.78;31070177;28;106913;-67
2023/08/01 18:57:35;;;;;;;2.15;0.85;;;;;;;16.61;73.09;98796.75;31042224;28;97201;-68
2023/08/01 19:12:35;;;;;;;1.60;0.88;;;;;;;16.60;73.29;98813.13;31047181;28;98133;-65
2023/08/01 19:27:36;;;;;;;2.80;1.42;;;;;;;16.38;74.31;98809.25;31083718;28;97540;-66
2023/08/01 19:42:36;;;;;;;2.95;1.02;;;;;;;16.27;75.32;98830.84;31124445;28;111972;-67
2023/08/01 19:57:36;;;;;;;2.90;1.05;;;;;;;16.19;75.65;98826.66;31108968;27;96731;-65
2023/08/01 20:12:37;;;;;;;2.45;1.48;;;;;;;16.00;75.98;98836.75;31085117;28;97580;-67
2023/08/01 20:27:38;;;;;;;2.28;1.15;;;;;;;15.86;76.21;98855.84;31084577;28;97731;-69
2023/08/01 20:42:38;;;;;;;2.60;1.17;;;;;;;15.60;76.76;98880.50;31083078;28;97749;-65
2023/08/01 20:57:38;;;;;;;4.07;1.38;;;;;;;15.50;77.48;98881.91;31082408;28;97857;-68
2023/08/01 21:12:39;;;;;;;2.58;1.42;;;;;;;15.67;77.72;98891.91;31075256;28;97346;-66
2023/08/01 21:27:39;;;;;;;4.53;1.30;;;;;;;15.71;77.03;98887.72;31080381;28;96748;-66
2023/08/01 21:42:39;;;;;;;3.65;1.30;;;;;;;15.54;77.37;98896.47;31081714;28;103313;-66
2023/08/01 21:57:40;;;;;;;3.38;1.30;;;;;;;15.27;77.49;98914.06;31097455;28;111678;-64
2023/08/01 22:12:42;;;;;;;3.00;1.50;;;;;;;15.13;78.29;98922.38;31096829;28;97186;-65
2023/08/01 22:27:42;;;;;;;3.13;1.40;;;;;;;14.92;78.58;98936.31;31096743;28;97228;-66
2023/08/01 22:42:42;;;;;;;3.90;1.70;;;;;;;14.70;78.74;98924.22;31094929;28;97971;-64
2023/08/01 22:57:43;;;;;;;4.65;1.83;;;;;;;14.50;79.24;98932.53;31092354;28;109344;-64
2023/08/01 23:12:43;;;;;;;3.33;2.08;;;;;;;14.37;79.44;98952.25;31092702;28;97687;-65
2023/08/01 23:27:43;;;;;;;4.10;1.60;;;;;;;14.24;79.59;98962.31;31091833;28;97559;-64
2023/08/01 23:42:44;;;;;;;5.68;2.10;;;;;;;14.12;80.20;98973.81;31089282;28;112760;-69
2023/08/01 23:57:45;;;;;;;5.27;2.20;;;;;;;14.07;80.11;98981.69;31089360;28;96745;-65
